sensor_id;sensor_type;location;lat;lon;timestamp;temperature;humidity
34542;DHT22;20784;51.332;12.410;2023-03-01T00:00:59;0.40;99.90
34542;DHT22;20784;51.332;12.410;2023-03-01T00:03:25;0.40;99.90
34542;DHT22;20784;51.332;12.410;2023-03-01T00:05:51;0.40;99.90
34542;DHT22;20784;51.332;12.410;2023-03-01T00:08:16;0.40;99.90
34542;DHT22;20784;51.332;12.410;2023-03-01T00:10:42;0.50;99.90
34542;DHT22;20784;51.332;12.410;2023-03-01T00:13:08;0.40;99.90
34542;DHT22;20784;51.332;12.410;2023-03-01T00:15:38;0.40;99.90
34542;DHT22;20784;51.332;12.410;2023-03-01T00:18:03;0.40;99.90
34542;DHT22;20784;51.332;12.410;2023-03-01T00:20:29;0.40;99.90
34542;DHT22;20784;51.332;12.410;2023-03-01T00:22:55;0.40;99.90
34542;DHT22;20784;51.332;12.410;2023-03-01T00:25:23;0.40;99.90
34542;DHT22;20784;51.332;12.410;2023-03-01T00:27:48;0.40;99.90
34542;DHT22;20784;51.332;12.410;2023-03-01T00:30:14;0.40;99.90
34542;DHT22;20784;51.332;12.410;2023-03-01T00:32:42;0.40;99.90
34542;DHT22;20784;51.332;12.410;2023-03-01T00:35:08;0.40;99.90
34542;DHT22;20784;51.332;12.410;2023-03-01T00:37:38;0.30;99.90
34542;DHT22;20784;51.332;12.410;2023-03-01T00:40:04;0.30;99.90
34542;DHT22;20784;51.332;12.410;2023-03-01T00:42:31;0.30;99.90
34542;DHT22;20784;51.332;12.410;2023-03-01T00:44:57;0.20;99.90
34542;DHT22;20784;51.332;12.410;2023-03-01T00:47:22;0.30;99.90
34542;DHT22;20784;51.332;12.410;2023-03-01T00:49:48;0.40;99.90
34542;DHT22;20784;51.332;12.410;2023-03-01T00:52:14;0.20;99.90
34542;DHT22;20784;51.332;12.410;2023-03-01T00:54:39;0.20;99.90
34542;DHT22;20784;51.332;12.410;2023-03-01T00:57:05;0.10;99.90
34542;DHT22;20784;51.332;12.410;2023-03-01T00:59:31;0.10;99.90
34542;DHT22;20784;51.332;12.410;2023-03-01T01:01:56;0.10;99.90
34542;DHT22;20784;51.332;12.410;2023-03-01T01:04:25;0.10;99.90
34542;DHT22;20784;51.332;12.410;2023-03-01T01:06:51;0.10;99.90
34542;DHT22;20784;51.332;12.410;2023-03-01T01:09:17;0.10;99.90
34542;DHT22;20784;51.332;12.410;2023-03-01T01:11:51;0.10;99.90
34542;DHT22;20784;51.332;12.410;2023-03-01T01:14:25;0.10;99.90
34542;DHT22;20784;51.332;12.410;2023-03-01T01:16:53;0.00;99.90
34542;DHT22;20784;51.332;12.410;2023-03-01T01:19:19;-0.20;99.90
34542;DHT22;20784;51.332;12.410;2023-03-01T01:21:44;-0.10;99.90
34542;DHT22;20784;51.332;12.410;2023-03-01T01:24:11;0.00;99.90
34542;DHT22;20784;51.332;12.410;2023-03-01T01:26:37;-0.10;99.90
34542;DHT22;20784;51.332;12.410;2023-03-01T01:29:04;-0.20;99.90
34542;DHT22;20784;51.332;12.410;2023-03-01T01:31:31;-0.10;99.90
34542;DHT22;20784;51.332;12.410;2023-03-01T01:33:57;-0.20;99.90
34542;DHT22;20784;51.332;12.410;2023-03-01T01:36:26;-0.20;99.90
34542;DHT22;20784;51.332;12.410;2023-03-01T01:38:52;-0.20;99.90
34542;DHT22;20784;51.332;12.410;2023-03-01T01:41:19;-0.30;99.90
34542;DHT22;20784;51.332;12.410;2023-03-01T01:43:47;-0.30;99.90
34542;DHT22;20784;51.332;12.410;2023-03-01T01:46:30;-0.30;99.90
34542;DHT22;20784;51.332;12.410;2023-03-01T01:49:07;-0.30;99.90
34542;DHT22;20784;51.332;12.410;2023-03-01T01:51:42;-0.30;99.90
34542;DHT22;20784;51.332;12.410;2023-03-01T01:54:12;-0.40;99.90
34542;DHT22;20784;51.332;12.410;2023-03-01T01:56:41;-0.40;99.90
34542;DHT22;20784;51.332;12.410;2023-03-01T01:59:08;-0.50;99.90
34542;DHT22;20784;51.332;12.410;2023-03-01T02:01:34;-0.40;99.90
34542;DHT22;20784;51.332;12.410;2023-03-01T02:04:00;-0.40;99.90
34542;DHT22;20784;51.332;12.410;2023-03-01T02:06:29;-0.60;99.90
34542;DHT22;20784;51.332;12.410;2023-03-01T02:09:00;-0.40;99.90
34542;DHT22;20784;51.332;12.410;2023-03-01T02:11:29;-0.40;99.90
34542;DHT22;20784;51.332;12.410;2023-03-01T02:13:55;-0.40;99.90
34542;DHT22;20784;51.332;12.410;2023-03-01T02:16:23;-0.50;99.90
34542;DHT22;20784;51.332;12.410;2023-03-01T02:18:51;-0.40;99.90
34542;DHT22;20784;51.332;12.410;2023-03-01T02:24:50;-0.50;99.90
34542;DHT22;20784;51.332;12.410;2023-03-01T02:27:19;-0.50;99.90
34542;DHT22;20784;51.332;12.410;2023-03-01T02:29:50;-0.60;99.90
34542;DHT22;20784;51.332;12.410;2023-03-01T02:32:16;-0.60;99.90
34542;DHT22;20784;51.332;12.410;2023-03-01T02:34:47;-0.60;99.90
34542;DHT22;20784;51.332;12.410;2023-03-01T02:37:16;-0.70;99.90
34542;DHT22;20784;51.332;12.410;2023-03-01T02:39:55;-0.70;99.90
34542;DHT22;20784;51.332;12.410;2023-03-01T02:42:27;-0.60;99.90
34542;DHT22;20784;51.332;12.410;2023-03-01T02:44:53;-0.70;99.90
34542;DHT22;20784;51.332;12.410;2023-03-01T02:47:19;-0.70;99.90
34542;DHT22;20784;51.332;12.410;2023-03-01T02:49:45;-0.80;99.90
34542;DHT22;20784;51.332;12.410;2023-03-01T02:52:40;-0.70;99.90
34542;DHT22;20784;51.332;12.410;2023-03-01T02:55:15;-0.80;99.90
34542;DHT22;20784;51.332;12.410;2023-03-01T02:57:43;-0.80;99.90
34542;DHT22;20784;51.332;12.410;2023-03-01T03:00:13;-0.80;99.90
34542;DHT22;20784;51.332;12.410;2023-03-01T03:02:46;-0.80;99.90
34542;DHT22;20784;51.332;12.410;2023-03-01T03:05:14;-0.90;99.90
34542;DHT22;20784;51.332;12.410;2023-03-01T03:07:44;-0.80;99.90
34542;DHT22;20784;51.332;12.410;2023-03-01T03:10:25;-0.80;99.90
34542;DHT22;20784;51.332;12.410;2023-03-01T03:12:54;-0.80;99.90
34542;DHT22;20784;51.332;12.410;2023-03-01T03:15:22;-0.80;99.90
34542;DHT22;20784;51.332;12.410;2023-03-01T03:17:48;-0.90;99.90
34542;DHT22;20784;51.332;12.410;2023-03-01T03:20:16;-0.90;99.90
34542;DHT22;20784;51.332;12.410;2023-03-01T03:22:51;-0.90;99.90
34542;DHT22;20784;51.332;12.410;2023-03-01T03:25:17;-0.90;99.90
34542;DHT22;20784;51.332;12.410;2023-03-01T03:27:48;-0.80;99.90
34542;DHT22;20784;51.332;12.410;2023-03-01T03:30:17;-0.80;99.90
34542;DHT22;20784;51.332;12.410;2023-03-01T03:32:44;-0.90;99.90
34542;DHT22;20784;51.332;12.410;2023-03-01T03:35:25;-0.90;99.90
34542;DHT22;20784;51.332;12.410;2023-03-01T03:37:52;-1.00;99.90
34542;DHT22;20784;51.332;12.410;2023-03-01T03:40:39;-1.00;99.90
34542;DHT22;20784;51.332;12.410;2023-03-01T03:43:08;-0.90;99.90
34542;DHT22;20784;51.332;12.410;2023-03-01T03:45:35;-1.00;99.90
34542;DHT22;20784;51.332;12.410;2023-03-01T03:48:03;-1.00;99.90
34542;DHT22;20784;51.332;12.410;2023-03-01T03:50:32;-1.00;99.90
34542;DHT22;20784;51.332;12.410;2023-03-01T03:53:00;-1.10;99.90
34542;DHT22;20784;51.332;12.410;2023-03-01T03:55:26;-1.00;99.90
34542;DHT22;20784;51.332;12.410;2023-03-01T03:57:57;-1.00;99.90
34542;DHT22;20784;51.332;12.410;2023-03-01T04:00:40;-1.10;99.90
34542;DHT22;20784;51.332;12.410;2023-03-01T04:03:07;-1.10;99.90
34542;DHT22;20784;51.332;12.410;2023-03-01T04:05:33;-1.10;99.90
34542;DHT22;20784;51.332;12.410;2023-03-01T04:07:59;-1.10;99.90
34542;DHT22;20784;51.332;12.410;2023-03-01T04:10:45;-1.00;99.90
34542;DHT22;20784;51.332;12.410;2023-03-01T04:13:31;-1.00;99.90
34542;DHT22;20784;51.332;12.410;2023-03-01T04:15:56;-1.10;99.90
34542;DHT22;20784;51.332;12.410;2023-03-01T04:18:23;-1.10;99.90
34542;DHT22;20784;51.332;12.410;2023-03-01T04:20:50;-1.10;99.90
34542;DHT22;20784;51.332;12.410;2023-03-01T04:23:19;-1.10;99.90
34542;DHT22;20784;51.332;12.410;2023-03-01T04:25:55;-1.20;99.90
34542;DHT22;20784;51.332;12.410;2023-03-01T04:28:35;-1.20;99.90
34542;DHT22;20784;51.332;12.410;2023-03-01T04:31:04;-1.20;99.90
34542;DHT22;20784;51.332;12.410;2023-03-01T04:33:44;-1.20;99.90
34542;DHT22;20784;51.332;12.410;2023-03-01T04:36:11;-1.10;99.90
34542;DHT22;20784;51.332;12.410;2023-03-01T04:38:40;-1.20;99.90
34542;DHT22;20784;51.332;12.410;2023-03-01T04:41:08;-1.20;99.90
34542;DHT22;20784;51.332;12.410;2023-03-01T04:43:34;-1.20;99.90
34542;DHT22;20784;51.332;12.410;2023-03-01T04:46:05;-1.20;99.90
34542;DHT22;20784;51.332;12.410;2023-03-01T04:48:31;-1.30;99.90
34542;DHT22;20784;51.332;12.410;2023-03-01T04:50:59;-1.20;99.90
34542;DHT22;20784;51.332;12.410;2023-03-01T04:53:27;-1.30;99.90
34542;DHT22;20784;51.332;12.410;2023-03-01T04:55:54;-1.30;99.90
34542;DHT22;20784;51.332;12.410;2023-03-01T04:58:22;-1.30;99.90
34542;DHT22;20784;51.332;12.410;2023-03-01T05:00:47;-1.40;99.90
34542;DHT22;20784;51.332;12.410;2023-03-01T05:03:13;-1.30;99.90
34542;DHT22;20784;51.332;12.410;2023-03-01T05:05:44;-1.30;99.90
34542;DHT22;20784;51.332;12.410;2023-03-01T05:08:10;-1.30;99.90
34542;DHT22;20784;51.332;12.410;2023-03-01T05:11:06;-1.30;99.90
34542;DHT22;20784;51.332;12.410;2023-03-01T05:13:34;-1.30;99.90
34542;DHT22;20784;51.332;12.410;2023-03-01T05:16:01;-1.30;99.90
34542;DHT22;20784;51.332;12.410;2023-03-01T05:18:29;-1.40;99.90
34542;DHT22;20784;51.332;12.410;2023-03-01T05:21:02;-1.40;99.90
34542;DHT22;20784;51.332;12.410;2023-03-01T05:23:30;-1.40;99.90
34542;DHT22;20784;51.332;12.410;2023-03-01T05:25:58;-1.40;99.90
34542;DHT22;20784;51.332;12.410;2023-03-01T05:28:25;-1.60;99.90
34542;DHT22;20784;51.332;12.410;2023-03-01T05:30:51;-1.50;99.90
34542;DHT22;20784;51.332;12.410;2023-03-01T05:33:17;-1.50;99.90
34542;DHT22;20784;51.332;12.410;2023-03-01T05:35:44;-1.50;99.90
34542;DHT22;20784;51.332;12.410;2023-03-01T05:38:11;-1.50;99.90
34542;DHT22;20784;51.332;12.410;2023-03-01T05:40:41;-1.50;99.90
34542;DHT22;20784;51.332;12.410;2023-03-01T05:43:07;-1.50;99.90
34542;DHT22;20784;51.332;12.410;2023-03-01T05:45:33;-1.40;99.90
34542;DHT22;20784;51.332;12.410;2023-03-01T05:48:00;-1.50;99.90
34542;DHT22;20784;51.332;12.410;2023-03-01T05:50:28;-1.50;99.90
34542;DHT22;20784;51.332;12.410;2023-03-01T05:53:02;-1.50;99.90
34542;DHT22;20784;51.332;12.410;2023-03-01T05:55:30;-1.50;99.90
34542;DHT22;20784;51.332;12.410;2023-03-01T05:57:59;-1.60;99.90
34542;DHT22;20784;51.332;12.410;2023-03-01T06:00:26;-1.60;99.90
34542;DHT22;20784;51.332;12.410;2023-03-01T06:02:53;-1.60;99.90
34542;DHT22;20784;51.332;12.410;2023-03-01T06:05:19;-1.60;99.90
34542;DHT22;20784;51.332;12.410;2023-03-01T06:07:45;-1.60;99.90
34542;DHT22;20784;51.332;12.410;2023-03-01T06:10:12;-1.60;99.90
34542;DHT22;20784;51.332;12.410;2023-03-01T06:12:41;-1.50;99.90
34542;DHT22;20784;51.332;12.410;2023-03-01T06:15:08;-1.50;99.90
34542;DHT22;20784;51.332;12.410;2023-03-01T06:17:38;-1.50;99.90
34542;DHT22;20784;51.332;12.410;2023-03-01T06:22:38;-1.50;99.90
34542;DHT22;20784;51.332;12.410;2023-03-01T06:25:12;-1.50;99.90
34542;DHT22;20784;51.332;12.410;2023-03-01T06:27:56;-1.50;99.90
34542;DHT22;20784;51.332;12.410;2023-03-01T06:30:24;-1.50;99.90
34542;DHT22;20784;51.332;12.410;2023-03-01T06:32:56;-1.40;99.90
34542;DHT22;20784;51.332;12.410;2023-03-01T06:35:29;-1.50;99.90
34542;DHT22;20784;51.332;12.410;2023-03-01T06:37:59;-1.50;99.90
34542;DHT22;20784;51.332;12.410;2023-03-01T06:40:25;-1.40;99.90
34542;DHT22;20784;51.332;12.410;2023-03-01T06:43:00;-1.40;99.90
34542;DHT22;20784;51.332;12.410;2023-03-01T06:45:26;-1.40;99.90
34542;DHT22;20784;51.332;12.410;2023-03-01T06:48:04;-1.30;99.90
34542;DHT22;20784;51.332;12.410;2023-03-01T06:50:34;-1.20;99.90
34542;DHT22;20784;51.332;12.410;2023-03-01T06:53:11;-1.10;99.90
34542;DHT22;20784;51.332;12.410;2023-03-01T06:55:57;-1.00;99.90
34542;DHT22;20784;51.332;12.410;2023-03-01T06:58:39;-0.90;99.90
34542;DHT22;20784;51.332;12.410;2023-03-01T07:01:19;-0.60;99.90
34542;DHT22;20784;51.332;12.410;2023-03-01T07:03:45;-0.30;99.90
34542;DHT22;20784;51.332;12.410;2023-03-01T07:06:11;0.10;99.90
34542;DHT22;20784;51.332;12.410;2023-03-01T07:08:37;0.50;99.90
34542;DHT22;20784;51.332;12.410;2023-03-01T07:11:10;0.90;99.90
34542;DHT22;20784;51.332;12.410;2023-03-01T07:13:36;1.30;99.90
34542;DHT22;20784;51.332;12.410;2023-03-01T07:16:01;1.80;99.90
34542;DHT22;20784;51.332;12.410;2023-03-01T07:18:27;2.70;99.90
34542;DHT22;20784;51.332;12.410;2023-03-01T07:20:56;3.30;99.90
34542;DHT22;20784;51.332;12.410;2023-03-01T07:23:22;4.20;99.90
34542;DHT22;20784;51.332;12.410;2023-03-01T07:25:54;5.10;99.90
34542;DHT22;20784;51.332;12.410;2023-03-01T07:28:21;5.60;99.90
34542;DHT22;20784;51.332;12.410;2023-03-01T07:30:47;5.90;99.90
34542;DHT22;20784;51.332;12.410;2023-03-01T07:33:17;5.90;99.90
34542;DHT22;20784;51.332;12.410;2023-03-01T07:35:56;5.50;99.90
34542;DHT22;20784;51.332;12.410;2023-03-01T07:38:22;5.10;99.90
34542;DHT22;20784;51.332;12.410;2023-03-01T07:40:58;4.80;99.90
34542;DHT22;20784;51.332;12.410;2023-03-01T07:43:24;4.50;99.90
34542;DHT22;20784;51.332;12.410;2023-03-01T07:45:53;4.30;99.90
34542;DHT22;20784;51.332;12.410;2023-03-01T07:48:18;4.30;99.90
34542;DHT22;20784;51.332;12.410;2023-03-01T07:50:44;4.00;99.90
34542;DHT22;20784;51.332;12.410;2023-03-01T07:53:10;4.00;99.90
34542;DHT22;20784;51.332;12.410;2023-03-01T07:55:36;4.20;99.90
34542;DHT22;20784;51.332;12.410;2023-03-01T07:58:04;4.40;99.90
34542;DHT22;20784;51.332;12.410;2023-03-01T08:00:30;4.70;99.90
34542;DHT22;20784;51.332;12.410;2023-03-01T08:02:59;5.00;99.90
34542;DHT22;20784;51.332;12.410;2023-03-01T08:05:25;5.10;99.90
34542;DHT22;20784;51.332;12.410;2023-03-01T08:07:51;5.50;99.90
34542;DHT22;20784;51.332;12.410;2023-03-01T08:10:16;5.90;99.90
34542;DHT22;20784;51.332;12.410;2023-03-01T08:12:42;6.30;99.90
34542;DHT22;20784;51.332;12.410;2023-03-01T08:15:08;6.40;99.90
34542;DHT22;20784;51.332;12.410;2023-03-01T08:17:34;6.80;99.90
34542;DHT22;20784;51.332;12.410;2023-03-01T08:20:00;7.30;99.90
34542;DHT22;20784;51.332;12.410;2023-03-01T08:22:28;7.80;99.90
34542;DHT22;20784;51.332;12.410;2023-03-01T08:24:54;8.00;99.90
34542;DHT22;20784;51.332;12.410;2023-03-01T08:27:22;8.30;99.90
34542;DHT22;20784;51.332;12.410;2023-03-01T08:29:48;8.40;99.90
34542;DHT22;20784;51.332;12.410;2023-03-01T08:32:14;8.80;99.90
34542;DHT22;20784;51.332;12.410;2023-03-01T08:34:39;9.00;99.90
34542;DHT22;20784;51.332;12.410;2023-03-01T08:37:05;9.20;99.90
34542;DHT22;20784;51.332;12.410;2023-03-01T08:39:34;9.40;99.90
34542;DHT22;20784;51.332;12.410;2023-03-01T08:41:59;9.80;99.90
34542;DHT22;20784;51.332;12.410;2023-03-01T08:44:25;9.90;99.90
34542;DHT22;20784;51.332;12.410;2023-03-01T08:46:50;10.00;99.90
34542;DHT22;20784;51.332;12.410;2023-03-01T08:49:19;10.20;99.90
34542;DHT22;20784;51.332;12.410;2023-03-01T08:51:46;10.20;99.90
34542;DHT22;20784;51.332;12.410;2023-03-01T08:54:15;10.50;99.90
34542;DHT22;20784;51.332;12.410;2023-03-01T08:56:42;10.70;99.90
34542;DHT22;20784;51.332;12.410;2023-03-01T08:59:09;11.00;99.90
34542;DHT22;20784;51.332;12.410;2023-03-01T09:01:34;11.10;99.90
34542;DHT22;20784;51.332;12.410;2023-03-01T09:04:00;11.60;99.90
34542;DHT22;20784;51.332;12.410;2023-03-01T09:06:26;11.60;99.90
34542;DHT22;20784;51.332;12.410;2023-03-01T09:08:52;12.10;99.90
34542;DHT22;20784;51.332;12.410;2023-03-01T09:11:20;12.30;99.90
34542;DHT22;20784;51.332;12.410;2023-03-01T09:13:47;12.00;99.90
34542;DHT22;20784;51.332;12.410;2023-03-01T09:16:15;11.90;99.90
34542;DHT22;20784;51.332;12.410;2023-03-01T09:18:43;11.50;99.90
34542;DHT22;20784;51.332;12.410;2023-03-01T09:21:14;11.70;99.90
34542;DHT22;20784;51.332;12.410;2023-03-01T09:23:42;12.10;99.90
34542;DHT22;20784;51.332;12.410;2023-03-01T09:26:13;12.50;99.90
34542;DHT22;20784;51.332;12.410;2023-03-01T09:28:42;12.90;99.90
34542;DHT22;20784;51.332;12.410;2023-03-01T09:31:11;12.50;99.90
34542;DHT22;20784;51.332;12.410;2023-03-01T09:33:39;12.30;99.90
34542;DHT22;20784;51.332;12.410;2023-03-01T09:36:11;12.30;99.90
34542;DHT22;20784;51.332;12.410;2023-03-01T09:38:36;12.00;99.90
34542;DHT22;20784;51.332;12.410;2023-03-01T09:41:08;11.90;99.90
34542;DHT22;20784;51.332;12.410;2023-03-01T09:43:47;12.00;99.90
34542;DHT22;20784;51.332;12.410;2023-03-01T09:46:16;12.20;99.90
34542;DHT22;20784;51.332;12.410;2023-03-01T09:49:01;12.20;99.90
34542;DHT22;20784;51.332;12.410;2023-03-01T09:51:41;12.50;99.90
34542;DHT22;20784;51.332;12.410;2023-03-01T09:54:09;12.40;99.90
34542;DHT22;20784;51.332;12.410;2023-03-01T09:56:47;12.70;99.90
34542;DHT22;20784;51.332;12.410;2023-03-01T09:59:28;13.30;99.90
34542;DHT22;20784;51.332;12.410;2023-03-01T10:04:41;13.00;99.90
34542;DHT22;20784;51.332;12.410;2023-03-01T10:10:06;12.60;99.90
34542;DHT22;20784;51.332;12.410;2023-03-01T10:12:40;12.60;99.90
34542;DHT22;20784;51.332;12.410;2023-03-01T10:15:51;12.60;99.90
34542;DHT22;20784;51.332;12.410;2023-03-01T10:18:23;13.40;99.90
34542;DHT22;20784;51.332;12.410;2023-03-01T10:21:02;14.00;99.90
34542;DHT22;20784;51.332;12.410;2023-03-01T10:23:31;14.30;99.90
34542;DHT22;20784;51.332;12.410;2023-03-01T10:26:25;14.30;99.90
34542;DHT22;20784;51.332;12.410;2023-03-01T10:30:05;14.10;99.90
34542;DHT22;20784;51.332;12.410;2023-03-01T10:32:11;14.00;99.90
34542;DHT22;20784;51.332;12.410;2023-03-01T10:34:37;13.90;99.90
34542;DHT22;20784;51.332;12.410;2023-03-01T10:37:19;14.00;99.90
34542;DHT22;20784;51.332;12.410;2023-03-01T10:40:03;14.00;99.90
34542;DHT22;20784;51.332;12.410;2023-03-01T10:42:46;14.30;99.90
34542;DHT22;20784;51.332;12.410;2023-03-01T10:45:36;14.20;99.90
34542;DHT22;20784;51.332;12.410;2023-03-01T10:50:48;14.40;99.40
34542;DHT22;20784;51.332;12.410;2023-03-01T10:53:22;14.60;98.90
34542;DHT22;20784;51.332;12.410;2023-03-01T10:56:00;14.80;98.70
34542;DHT22;20784;51.332;12.410;2023-03-01T10:58:27;15.10;97.90
34542;DHT22;20784;51.332;12.410;2023-03-01T11:01:03;15.20;97.10
34542;DHT22;20784;51.332;12.410;2023-03-01T11:03:37;14.70;96.40
34542;DHT22;20784;51.332;12.410;2023-03-01T11:08:40;14.70;97.60
34542;DHT22;20784;51.332;12.410;2023-03-01T11:11:17;14.70;96.80
34542;DHT22;20784;51.332;12.410;2023-03-01T11:13:56;14.90;96.80
34542;DHT22;20784;51.332;12.410;2023-03-01T11:16:30;15.20;97.30
34542;DHT22;20784;51.332;12.410;2023-03-01T11:19:20;15.40;96.50
34542;DHT22;20784;51.332;12.410;2023-03-01T11:22:03;15.30;96.60
34542;DHT22;20784;51.332;12.410;2023-03-01T11:24:55;15.20;96.40
34542;DHT22;20784;51.332;12.410;2023-03-01T11:27:48;15.30;96.90
34542;DHT22;20784;51.332;12.410;2023-03-01T11:30:37;15.50;96.80
34542;DHT22;20784;51.332;12.410;2023-03-01T11:33:43;15.50;96.80
34542;DHT22;20784;51.332;12.410;2023-03-01T11:39:37;15.70;96.40
34542;DHT22;20784;51.332;12.410;2023-03-01T11:42:17;15.40;96.60
34542;DHT22;20784;51.332;12.410;2023-03-01T11:44:47;15.00;96.20
34542;DHT22;20784;51.332;12.410;2023-03-01T11:47:45;14.50;97.20
34542;DHT22;20784;51.332;12.410;2023-03-01T11:53:48;14.40;98.70
34542;DHT22;20784;51.332;12.410;2023-03-01T11:56:29;14.10;97.20
34542;DHT22;20784;51.332;12.410;2023-03-01T12:04:54;13.60;98.10
34542;DHT22;20784;51.332;12.410;2023-03-01T12:07:41;13.30;98.40
34542;DHT22;20784;51.332;12.410;2023-03-01T12:10:26;13.60;97.70
34542;DHT22;20784;51.332;12.410;2023-03-01T12:16:13;13.40;98.30
34542;DHT22;20784;51.332;12.410;2023-03-01T12:22:11;13.40;96.90
34542;DHT22;20784;51.332;12.410;2023-03-01T12:30:25;13.20;96.90
34542;DHT22;20784;51.332;12.410;2023-03-01T12:38:49;12.80;97.30
34542;DHT22;20784;51.332;12.410;2023-03-01T12:52:13;11.10;98.80
34542;DHT22;20784;51.332;12.410;2023-03-01T12:54:47;11.00;99.50
34542;DHT22;20784;51.332;12.410;2023-03-01T12:57:31;11.00;99.90
34542;DHT22;20784;51.332;12.410;2023-03-01T13:09:23;11.10;99.90
34542;DHT22;20784;51.332;12.410;2023-03-01T13:11:52;10.80;99.90
34542;DHT22;20784;51.332;12.410;2023-03-01T13:16:51;10.90;99.90
34542;DHT22;20784;51.332;12.410;2023-03-01T13:19:28;11.00;99.90
34542;DHT22;20784;51.332;12.410;2023-03-01T13:22:31;11.20;99.90
34542;DHT22;20784;51.332;12.410;2023-03-01T13:25:03;11.20;99.90
34542;DHT22;20784;51.332;12.410;2023-03-01T13:27:37;11.40;99.90
34542;DHT22;20784;51.332;12.410;2023-03-01T13:30:03;11.50;99.90
34542;DHT22;20784;51.332;12.410;2023-03-01T13:32:37;11.70;99.90
34542;DHT22;20784;51.332;12.410;2023-03-01T13:37:44;11.80;99.90
34542;DHT22;20784;51.332;12.410;2023-03-01T13:42:57;11.50;99.90
34542;DHT22;20784;51.332;12.410;2023-03-01T13:45:43;11.20;99.90
34542;DHT22;20784;51.332;12.410;2023-03-01T13:48:28;11.30;99.90
34542;DHT22;20784;51.332;12.410;2023-03-01T13:51:08;11.40;99.90
34542;DHT22;20784;51.332;12.410;2023-03-01T13:53:45;11.20;99.90
34542;DHT22;20784;51.332;12.410;2023-03-01T13:58:52;10.90;99.90
34542;DHT22;20784;51.332;12.410;2023-03-01T14:01:31;10.50;99.90
34542;DHT22;20784;51.332;12.410;2023-03-01T14:04:00;10.30;99.90
34542;DHT22;20784;51.332;12.410;2023-03-01T14:06:35;10.50;99.90
34542;DHT22;20784;51.332;12.410;2023-03-01T14:09:22;10.60;99.90
34542;DHT22;20784;51.332;12.410;2023-03-01T14:12:14;10.40;99.90
34542;DHT22;20784;51.332;12.410;2023-03-01T14:15:04;10.10;99.90
34542;DHT22;20784;51.332;12.410;2023-03-01T14:17:42;10.00;99.90
34542;DHT22;20784;51.332;12.410;2023-03-01T14:20:30;10.10;99.90
34542;DHT22;20784;51.332;12.410;2023-03-01T14:23:01;10.00;99.90
34542;DHT22;20784;51.332;12.410;2023-03-01T14:25:50;10.00;99.90
34542;DHT22;20784;51.332;12.410;2023-03-01T14:28:19;9.70;99.30
34542;DHT22;20784;51.332;12.410;2023-03-01T14:31:01;9.60;98.90
34542;DHT22;20784;51.332;12.410;2023-03-01T14:33:33;9.60;99.90
34542;DHT22;20784;51.332;12.410;2023-03-01T14:36:06;9.60;99.90
34542;DHT22;20784;51.332;12.410;2023-03-01T14:38:42;9.80;99.30
34542;DHT22;20784;51.332;12.410;2023-03-01T14:41:23;9.60;98.90
34542;DHT22;20784;51.332;12.410;2023-03-01T14:44:14;9.50;98.70
34542;DHT22;20784;51.332;12.410;2023-03-01T14:46:43;9.30;99.20
34542;DHT22;20784;51.332;12.410;2023-03-01T14:49:19;9.20;99.50
34542;DHT22;20784;51.332;12.410;2023-03-01T14:52:00;9.00;99.00
34542;DHT22;20784;51.332;12.410;2023-03-01T14:56:57;8.60;99.80
34542;DHT22;20784;51.332;12.410;2023-03-01T14:59:23;8.50;99.90
34542;DHT22;20784;51.332;12.410;2023-03-01T15:01:51;8.40;99.90
34542;DHT22;20784;51.332;12.410;2023-03-01T15:04:22;8.40;99.90
34542;DHT22;20784;51.332;12.410;2023-03-01T15:06:51;8.40;99.90
34542;DHT22;20784;51.332;12.410;2023-03-01T15:09:17;8.50;99.90
34542;DHT22;20784;51.332;12.410;2023-03-01T15:11:44;8.40;99.90
34542;DHT22;20784;51.332;12.410;2023-03-01T15:14:26;8.20;99.90
34542;DHT22;20784;51.332;12.410;2023-03-01T15:16:53;8.10;99.90
34542;DHT22;20784;51.332;12.410;2023-03-01T15:19:41;8.20;99.90
34542;DHT22;20784;51.332;12.410;2023-03-01T15:22:14;8.20;99.90
34542;DHT22;20784;51.332;12.410;2023-03-01T15:24:41;8.20;99.90
34542;DHT22;20784;51.332;12.410;2023-03-01T15:27:20;8.30;99.90
34542;DHT22;20784;51.332;12.410;2023-03-01T15:29:54;8.20;99.90
34542;DHT22;20784;51.332;12.410;2023-03-01T15:32:33;8.20;99.90
34542;DHT22;20784;51.332;12.410;2023-03-01T15:35:00;8.00;99.90
34542;DHT22;20784;51.332;12.410;2023-03-01T15:37:45;8.00;99.90
34542;DHT22;20784;51.332;12.410;2023-03-01T15:43:36;7.80;99.90
34542;DHT22;20784;51.332;12.410;2023-03-01T15:45:57;7.70;99.90
34542;DHT22;20784;51.332;12.410;2023-03-01T15:48:23;7.50;99.90
34542;DHT22;20784;51.332;12.410;2023-03-01T15:50:56;7.50;99.90
34542;DHT22;20784;51.332;12.410;2023-03-01T15:53:35;7.50;99.90
34542;DHT22;20784;51.332;12.410;2023-03-01T15:56:01;7.50;99.90
34542;DHT22;20784;51.332;12.410;2023-03-01T15:58:27;7.50;99.90
34542;DHT22;20784;51.332;12.410;2023-03-01T16:00:53;7.50;99.90
34542;DHT22;20784;51.332;12.410;2023-03-01T16:03:25;7.30;99.90
34542;DHT22;20784;51.332;12.410;2023-03-01T16:05:53;7.30;99.90
34542;DHT22;20784;51.332;12.410;2023-03-01T16:08:19;7.20;99.90
34542;DHT22;20784;51.332;12.410;2023-03-01T16:10:48;7.10;99.90
34542;DHT22;20784;51.332;12.410;2023-03-01T16:13:16;7.10;99.90
34542;DHT22;20784;51.332;12.410;2023-03-01T16:15:43;7.00;99.90
34542;DHT22;20784;51.332;12.410;2023-03-01T16:18:11;7.00;99.90
34542;DHT22;20784;51.332;12.410;2023-03-01T16:20:37;6.90;99.90
34542;DHT22;20784;51.332;12.410;2023-03-01T16:23:13;6.80;99.90
34542;DHT22;20784;51.332;12.410;2023-03-01T16:25:43;6.80;99.90
34542;DHT22;20784;51.332;12.410;2023-03-01T16:28:09;6.80;99.90
34542;DHT22;20784;51.332;12.410;2023-03-01T16:30:48;6.70;99.90
34542;DHT22;20784;51.332;12.410;2023-03-01T16:33:16;6.70;99.90
34542;DHT22;20784;51.332;12.410;2023-03-01T16:35:47;6.60;99.90
34542;DHT22;20784;51.332;12.410;2023-03-01T16:38:15;6.50;99.90
34542;DHT22;20784;51.332;12.410;2023-03-01T16:40:49;6.50;99.90
34542;DHT22;20784;51.332;12.410;2023-03-01T16:43:23;6.50;99.90
34542;DHT22;20784;51.332;12.410;2023-03-01T16:45:58;6.50;99.90
34542;DHT22;20784;51.332;12.410;2023-03-01T16:48:24;6.50;99.90
34542;DHT22;20784;51.332;12.410;2023-03-01T16:51:00;6.40;99.90
34542;DHT22;20784;51.332;12.410;2023-03-01T16:53:27;6.50;99.90
34542;DHT22;20784;51.332;12.410;2023-03-01T16:56:08;6.40;99.90
34542;DHT22;20784;51.332;12.410;2023-03-01T16:58:36;6.40;99.90
34542;DHT22;20784;51.332;12.410;2023-03-01T17:01:07;6.30;99.90
34542;DHT22;20784;51.332;12.410;2023-03-01T17:03:45;6.30;99.90
34542;DHT22;20784;51.332;12.410;2023-03-01T17:06:16;6.20;99.90
34542;DHT22;20784;51.332;12.410;2023-03-01T17:08:43;6.30;99.90
34542;DHT22;20784;51.332;12.410;2023-03-01T17:11:25;6.10;99.90
34542;DHT22;20784;51.332;12.410;2023-03-01T17:13:53;6.20;99.90